createdAt,value
2019-01-27T00:01:37.164Z,1.63
2019-01-27T00:03:41.685Z,2.47
2019-01-27T00:05:46.775Z,2.03
2019-01-27T00:08:13.717Z,2.20
2019-01-27T00:10:16.988Z,1.67
2019-01-27T00:12:24.657Z,1.50
2019-01-27T00:14:28.996Z,4.73
2019-01-27T00:16:33.393Z,2.67
2019-01-27T00:18:37.825Z,1.63
2019-01-27T00:21:02.787Z,2.67
2019-01-27T00:23:07.510Z,2.43
2019-01-27T00:25:12.374Z,2.43
2019-01-27T00:27:17.477Z,2.37
2019-01-27T00:29:22.314Z,3.00
2019-01-27T00:31:26.738Z,2.20
2019-01-27T00:33:50.430Z,1.93
2019-01-27T00:35:54.923Z,1.70
2019-01-27T00:38:00.255Z,2.67
2019-01-27T00:40:05.407Z,2.00
2019-01-27T00:42:09.960Z,1.87
2019-01-27T00:44:22.128Z,5.23
2019-01-27T00:46:26.524Z,2.90
2019-01-27T00:48:31.035Z,2.10
2019-01-27T00:50:35.506Z,3.17
2019-01-27T00:52:40.115Z,1.80
2019-01-27T00:57:09.486Z,2.77
2019-01-27T00:59:14.634Z,2.57
2019-01-27T01:01:19.157Z,2.37
2019-01-27T01:03:43.675Z,1.53
2019-01-27T01:05:48.300Z,1.20
2019-01-27T01:07:52.941Z,1.27
2019-01-27T01:09:57.632Z,1.53
2019-01-27T01:12:02.896Z,1.60
2019-01-27T01:14:07.347Z,1.50
2019-01-27T01:16:14.781Z,1.70
2019-01-27T01:18:19.356Z,3.20
2019-01-27T01:20:24.337Z,1.60
2019-01-27T01:22:29.369Z,2.70
2019-01-27T01:24:35.726Z,1.63
2019-01-27T01:26:40.234Z,1.33
2019-01-27T01:28:46.435Z,2.20
2019-01-27T01:30:51.562Z,1.70
2019-01-27T01:35:25.433Z,4.67
2019-01-27T01:37:43.783Z,3.40
2019-01-27T01:39:48.787Z,3.13
2019-01-27T01:41:53.115Z,1.73
2019-01-27T01:44:16.490Z,1.60
2019-01-27T01:48:55.841Z,2.70
2019-01-27T01:51:00.639Z,2.60
2019-01-27T01:53:25.521Z,1.23
2019-01-27T01:55:41.625Z,1.30
2019-01-27T01:57:47.253Z,1.43
2019-01-27T01:59:51.667Z,3.73
2019-01-27T02:02:15.287Z,1.17
2019-01-27T02:04:39.118Z,1.70
2019-01-27T02:06:43.884Z,1.77
2019-01-27T02:08:48.296Z,1.27
2019-01-27T02:10:54.711Z,1.27
2019-01-27T02:13:18.191Z,2.27
2019-01-27T02:16:00.947Z,1.60
2019-01-27T02:18:24.439Z,3.00
2019-01-27T02:20:29.199Z,0.90
2019-01-27T02:22:33.616Z,0.80
2019-01-27T02:24:40.988Z,2.13
2019-01-27T02:26:45.363Z,2.73
2019-01-27T02:28:49.786Z,0.87
2019-01-27T02:30:54.263Z,0.90
2019-01-27T02:32:58.714Z,0.70
2019-01-27T02:35:03.476Z,4.10
2019-01-27T02:37:07.970Z,1.17
2019-01-27T02:39:31.434Z,0.70
2019-01-27T02:41:37.412Z,1.80
2019-01-27T02:43:41.863Z,1.83
2019-01-27T02:45:46.932Z,1.20
2019-01-27T02:47:51.525Z,2.20
2019-01-27T02:49:55.997Z,5.63
2019-01-27T02:52:00.463Z,2.60
2019-01-27T02:54:05.427Z,2.63
2019-01-27T02:56:09.831Z,2.60
2019-01-27T02:58:15.383Z,2.40
2019-01-27T03:00:20.153Z,8.70
2019-01-27T03:02:44.011Z,2.77
2019-01-27T03:05:02.129Z,5.93
2019-01-27T03:09:45.370Z,9.40
2019-01-27T03:12:08.660Z,7.37
2019-01-27T03:14:13.997Z,6.37
2019-01-27T03:16:41.085Z,6.10
2019-01-27T03:18:45.892Z,11.60
2019-01-27T03:21:04.549Z,8.20
2019-01-27T03:22:57.241Z,7.77
2019-01-27T03:25:03.483Z,5.50
2019-01-27T03:27:07.936Z,8.77
2019-01-27T03:29:12.786Z,8.07
2019-01-27T03:31:17.293Z,6.53
2019-01-27T03:33:23.250Z,6.50
2019-01-27T03:35:28.114Z,10.70
2019-01-27T03:37:33.000Z,7.50
2019-01-27T03:39:37.382Z,6.40
2019-01-27T03:41:42.084Z,5.93
2019-01-27T03:43:46.430Z,9.80
2019-01-27T03:45:51.525Z,8.97
2019-01-27T03:47:56.715Z,5.80
2019-01-27T03:50:01.221Z,11.23
2019-01-27T03:52:05.916Z,9.80
2019-01-27T03:54:10.524Z,6.30
2019-01-27T03:56:33.996Z,5.90
2019-01-27T03:58:50.449Z,4.13
2019-01-27T04:01:06.173Z,10.70
2019-01-27T04:03:21.889Z,5.80
2019-01-27T04:05:26.348Z,4.43
2019-01-27T04:07:30.863Z,3.30
2019-01-27T04:09:35.327Z,4.30
2019-01-27T04:11:59.108Z,4.23
2019-01-27T04:14:04.026Z,6.90
2019-01-27T04:16:30.377Z,2.20
2019-01-27T04:18:35.150Z,2.30
2019-01-27T04:20:40.184Z,1.93
2019-01-27T04:22:45.383Z,1.30
2019-01-27T04:25:08.968Z,1.33
2019-01-27T04:27:25.280Z,3.50
2019-01-27T04:29:41.763Z,2.23
2019-01-27T04:32:05.239Z,2.90
2019-01-27T04:34:28.764Z,2.43
2019-01-27T04:36:33.149Z,2.00
2019-01-27T04:38:38.210Z,1.10
2019-01-27T04:40:45.567Z,1.00
2019-01-27T04:42:50.272Z,2.13
2019-01-27T04:44:59.613Z,0.70
2019-01-27T04:47:05.925Z,1.43
2019-01-27T04:49:10.335Z,1.53
2019-01-27T04:54:05.084Z,1.00
2019-01-27T04:56:12.598Z,0.60
2019-01-27T04:58:17.081Z,0.73
2019-01-27T05:00:33.320Z,1.37
2019-01-27T05:03:08.815Z,1.30
2019-01-27T05:05:13.536Z,3.30
2019-01-27T05:07:36.970Z,0.97
2019-01-27T05:09:41.377Z,1.07
2019-01-27T05:11:45.860Z,0.90
2019-01-27T05:13:50.793Z,0.70
2019-01-27T05:15:55.618Z,0.90
2019-01-27T05:18:18.887Z,1.70
2019-01-27T05:20:23.302Z,0.67
2019-01-27T05:22:27.952Z,2.60
2019-01-27T05:24:32.740Z,1.10
2019-01-27T05:26:37.290Z,6.30
2019-01-27T05:28:41.798Z,1.00
2019-01-27T05:30:46.224Z,1.50
2019-01-27T05:32:53.053Z,0.93
2019-01-27T05:35:18.368Z,0.80
2019-01-27T05:37:23.162Z,1.07
2019-01-27T05:39:47.162Z,2.30
2019-01-27T05:41:51.758Z,0.80
2019-01-27T05:43:56.666Z,1.07
2019-01-27T05:46:20.273Z,1.00
2019-01-27T05:48:25.131Z,0.70
2019-01-27T05:50:48.937Z,1.13
2019-01-27T05:53:00.789Z,1.50
2019-01-27T05:55:24.282Z,1.93
2019-01-27T05:57:49.459Z,1.30
2019-01-27T05:59:54.176Z,1.10
2019-01-27T06:02:10.297Z,2.50
2019-01-27T06:04:26.564Z,0.83
2019-01-27T06:06:31.362Z,1.10
2019-01-27T06:08:36.173Z,0.90
2019-01-27T06:10:42.946Z,0.80
2019-01-27T06:12:47.740Z,1.10
2019-01-27T06:14:55.494Z,1.30
2019-01-27T06:16:59.903Z,2.60
2019-01-27T06:19:23.717Z,0.70
2019-01-27T06:21:28.263Z,1.60
2019-01-27T06:23:52.253Z,0.70
2019-01-27T06:25:57.114Z,1.23
2019-01-27T06:28:03.967Z,1.87
2019-01-27T06:30:12.060Z,0.73
2019-01-27T06:32:34.646Z,2.30
2019-01-27T06:34:39.468Z,1.50
2019-01-27T06:36:44.819Z,0.60
2019-01-27T06:38:49.949Z,0.60
2019-01-27T06:41:16.469Z,1.23
2019-01-27T06:43:24.454Z,0.70
2019-01-27T06:45:31.383Z,1.63
2019-01-27T06:47:38.084Z,0.60
2019-01-27T06:49:42.844Z,0.80
2019-01-27T06:51:48.984Z,2.60
2019-01-27T06:54:12.492Z,0.60
2019-01-27T06:56:17.471Z,2.40
2019-01-27T07:00:52.983Z,0.73
2019-01-27T07:03:04.431Z,1.13
2019-01-27T07:05:29.196Z,0.60
2019-01-27T07:07:57.916Z,2.43
2019-01-27T07:10:15.279Z,3.47
2019-01-27T07:12:42.833Z,0.60
2019-01-27T07:15:17.587Z,0.97
2019-01-27T07:17:41.601Z,0.70
2019-01-27T07:20:06.809Z,2.60
2019-01-27T07:22:30.574Z,1.83
2019-01-27T07:24:53.975Z,1.17
2019-01-27T07:27:17.335Z,2.90
2019-01-27T07:30:04.031Z,1.10
2019-01-27T07:32:27.471Z,1.63
2019-01-27T07:34:51.017Z,1.23
2019-01-27T07:37:14.484Z,2.27
2019-01-27T07:39:37.909Z,1.10
2019-01-27T07:42:05.465Z,0.60
2019-01-27T07:44:25.829Z,0.90
2019-01-27T07:46:49.542Z,1.00
2019-01-27T07:49:09.990Z,1.00
2019-01-27T07:51:33.379Z,0.90
2019-01-27T07:53:57.814Z,1.50
2019-01-27T07:56:42.488Z,2.40
2019-01-27T07:59:06.405Z,1.33
2019-01-27T08:01:31.469Z,1.63
2019-01-27T08:04:06.996Z,2.30
2019-01-27T08:06:34.968Z,2.90
2019-01-27T08:08:58.440Z,5.13
2019-01-27T08:13:42.680Z,1.60
2019-01-27T08:16:06.121Z,5.53
2019-01-27T08:18:30.626Z,4.90
2019-01-27T08:20:53.992Z,1.00
2019-01-27T08:23:34.193Z,2.60
2019-01-27T08:26:02.055Z,1.97
2019-01-27T08:28:17.422Z,4.93
2019-01-27T08:30:41.187Z,1.63
2019-01-27T08:35:43.500Z,4.00
2019-01-27T08:38:07.038Z,1.30
2019-01-27T08:40:47.437Z,4.67
2019-01-27T08:43:12.113Z,4.10
2019-01-27T08:45:35.702Z,1.73
2019-01-27T08:47:40.234Z,3.00
2019-01-27T08:49:44.767Z,1.50
2019-01-27T08:51:49.588Z,2.97
2019-01-27T08:53:54.146Z,1.87
2019-01-27T08:58:23.291Z,5.10
2019-01-27T09:00:46.648Z,1.37
2019-01-27T09:03:11.502Z,2.93
2019-01-27T09:08:02.099Z,3.43
2019-01-27T09:10:16.918Z,3.50
2019-01-27T09:12:42.458Z,17.70
2019-01-27T09:15:06.679Z,3.97
2019-01-27T09:20:12.422Z,2.20
2019-01-27T09:22:35.758Z,2.50
2019-01-27T09:31:49.483Z,2.00
2019-01-27T09:34:33.141Z,2.53
2019-01-27T09:36:57.001Z,2.93
2019-01-27T09:42:06.120Z,2.50
2019-01-27T09:44:30.087Z,3.43
2019-01-27T09:49:22.736Z,8.67
2019-01-27T09:51:57.957Z,3.33
2019-01-27T09:54:21.601Z,3.13
2019-01-27T09:56:49.710Z,4.73
2019-01-27T09:59:05.334Z,5.23
2019-01-27T10:02:05.193Z,2.90
2019-01-27T10:04:34.641Z,2.13
2019-01-27T10:07:10.919Z,5.97
2019-01-27T10:09:35.582Z,2.30
2019-01-27T10:11:55.967Z,10.80
2019-01-27T10:14:19.641Z,5.07
2019-01-27T10:16:48.231Z,7.93
2019-01-27T10:19:15.130Z,6.30
2019-01-27T10:21:38.677Z,4.97
2019-01-27T10:24:16.972Z,2.00
2019-01-27T10:26:40.497Z,3.67
2019-01-27T10:29:03.775Z,9.17
2019-01-27T10:31:25.142Z,2.50
2019-01-27T10:33:50.392Z,3.00
2019-01-27T10:36:14.707Z,3.07
2019-01-27T10:38:55.540Z,1.90
2019-01-27T10:41:30.081Z,3.07
2019-01-27T10:43:53.948Z,5.23
2019-01-27T10:46:21.915Z,2.47
2019-01-27T10:48:37.835Z,2.50
2019-01-27T10:51:13.317Z,2.93
2019-01-27T10:53:59.460Z,2.93
2019-01-27T10:58:51.732Z,8.80
2019-01-27T11:01:18.343Z,2.63
2019-01-27T11:03:40.426Z,4.47
2019-01-27T11:06:03.897Z,1.10
2019-01-27T11:08:36.466Z,2.03
2019-01-27T11:11:18.612Z,1.97
2019-01-27T11:13:34.781Z,4.90
2019-01-27T11:15:58.578Z,1.50
2019-01-27T11:18:41.000Z,3.07
2019-01-27T11:21:05.818Z,1.10
2019-01-27T11:23:29.203Z,5.07
2019-01-27T11:25:46.766Z,1.63
2019-01-27T11:27:58.024Z,3.10
2019-01-27T11:30:28.076Z,1.20
2019-01-27T11:33:11.067Z,3.83
2019-01-27T11:35:39.448Z,1.83
2019-01-27T11:38:03.083Z,4.13
2019-01-27T11:40:17.882Z,1.00
2019-01-27T11:42:41.276Z,1.17
2019-01-27T11:45:05.099Z,1.87
2019-01-27T11:47:28.953Z,6.37
2019-01-27T11:49:52.469Z,1.20
2019-01-27T11:52:16.267Z,3.90
2019-01-27T11:54:21.380Z,2.37
2019-01-27T11:56:25.859Z,2.80
2019-01-27T11:58:30.410Z,1.13
2019-01-27T12:00:48.264Z,0.77
2019-01-27T12:02:53.112Z,0.57
2019-01-27T12:04:58.020Z,0.93
2019-01-27T12:07:02.399Z,6.27
2019-01-27T12:09:08.822Z,2.40
2019-01-27T12:11:14.334Z,1.30
2019-01-27T12:13:20.171Z,1.00
2019-01-27T12:15:25.220Z,1.50
2019-01-27T12:17:49.104Z,7.37
2019-01-27T12:19:54.093Z,0.80
2019-01-27T12:21:58.503Z,1.03
2019-01-27T12:24:03.843Z,4.13
2019-01-27T12:26:09.615Z,0.73
2019-01-27T12:28:14.218Z,0.97
2019-01-27T12:30:38.469Z,0.97
2019-01-27T12:32:43.433Z,3.37
2019-01-27T12:34:47.997Z,2.00
2019-01-27T12:37:12.900Z,2.90
2019-01-27T12:39:39.439Z,1.50
2019-01-27T12:41:46.105Z,3.53
2019-01-27T12:43:51.578Z,1.33
2019-01-27T12:45:57.807Z,3.10
2019-01-27T12:48:02.692Z,2.40
2019-01-27T12:50:10.544Z,1.63
2019-01-27T12:52:15.919Z,2.40
2019-01-27T12:54:20.869Z,1.40
2019-01-27T12:56:26.542Z,0.80
2019-01-27T12:58:32.354Z,1.33
2019-01-27T13:00:59.294Z,1.10
2019-01-27T13:03:06.201Z,3.33
2019-01-27T13:05:30.107Z,0.80
2019-01-27T13:07:35.316Z,7.70
2019-01-27T13:09:40.488Z,6.33
2019-01-27T13:11:57.290Z,1.37
2019-01-27T13:14:03.170Z,1.10
2019-01-27T13:16:27.326Z,1.30
2019-01-27T13:18:32.466Z,2.80
2019-01-27T13:23:22.107Z,4.30
2019-01-27T13:25:47.310Z,0.90
2019-01-27T13:27:52.456Z,1.77
2019-01-27T13:29:57.582Z,5.70
2019-01-27T13:32:02.557Z,5.13
2019-01-27T13:34:26.540Z,2.03
2019-01-27T13:36:32.214Z,3.83
2019-01-27T13:38:37.289Z,2.43
2019-01-27T13:43:07.346Z,5.13
2019-01-27T13:45:14.570Z,4.80
2019-01-27T13:47:19.742Z,4.70
2019-01-27T13:49:24.763Z,7.97
2019-01-27T13:51:51.950Z,5.73
2019-01-27T13:53:56.640Z,9.23
2019-01-27T13:56:03.142Z,9.40
2019-01-27T14:00:37.714Z,6.77
2019-01-27T14:02:42.299Z,10.80
2019-01-27T14:04:49.816Z,10.27
2019-01-27T14:06:56.233Z,10.67
2019-01-27T14:09:03.384Z,9.30
2019-01-27T14:11:08.003Z,11.77
2019-01-27T14:13:12.559Z,14.07
2019-01-27T14:15:20.815Z,12.33
2019-01-27T14:17:25.654Z,15.63
2019-01-27T14:19:30.451Z,9.60
2019-01-27T14:21:35.627Z,13.80
2019-01-27T14:23:59.183Z,15.40
2019-01-27T14:26:22.683Z,20.47
2019-01-27T14:28:27.592Z,18.90
2019-01-27T14:30:34.511Z,16.07
2019-01-27T14:32:57.948Z,10.50
2019-01-27T14:35:02.481Z,9.30
2019-01-27T14:37:07.272Z,16.70
2019-01-27T14:39:31.165Z,9.80
2019-01-27T14:41:36.700Z,13.27
2019-01-27T14:43:56.612Z,6.73
2019-01-27T14:45:53.912Z,5.83
2019-01-27T14:48:17.381Z,5.07
2019-01-27T14:50:27.767Z,4.90
2019-01-27T14:52:33.499Z,6.80
2019-01-27T14:54:38.054Z,2.37
2019-01-27T14:57:01.792Z,1.80
2019-01-27T14:59:06.470Z,3.77
2019-01-27T15:01:12.514Z,4.13
2019-01-27T15:03:18.458Z,4.00
2019-01-27T15:05:23.110Z,1.83
2019-01-27T15:07:47.515Z,3.17
2019-01-27T15:09:52.694Z,1.97
2019-01-27T15:11:58.011Z,2.30
2019-01-27T15:14:02.593Z,0.97
2019-01-27T15:16:19.904Z,1.00
2019-01-27T15:18:24.412Z,1.90
2019-01-27T15:23:14.888Z,0.70
2019-01-27T15:25:19.528Z,1.53
2019-01-27T15:27:36.009Z,0.70
2019-01-27T15:29:52.245Z,1.37
2019-01-27T15:32:08.447Z,0.80
2019-01-27T15:34:12.958Z,2.50
2019-01-27T15:36:17.647Z,1.10
2019-01-27T15:38:22.093Z,0.80
2019-01-27T15:40:26.811Z,1.73
2019-01-27T15:42:33.926Z,0.87
2019-01-27T15:44:40.825Z,0.93
2019-01-27T15:46:45.439Z,1.33
2019-01-27T15:48:50.209Z,1.00
2019-01-27T15:50:54.947Z,2.27
2019-01-27T15:53:18.829Z,1.13
2019-01-27T15:55:35.300Z,3.67
2019-01-27T15:57:40.068Z,3.30
2019-01-27T15:59:47.449Z,1.00
2019-01-27T16:02:11.289Z,1.80
2019-01-27T16:04:16.047Z,2.40
2019-01-27T16:06:39.000Z,6.50
2019-01-27T16:08:43.707Z,3.53
2019-01-27T16:10:48.257Z,5.70
2019-01-27T16:12:56.424Z,2.30
2019-01-27T16:15:00.831Z,3.27
2019-01-27T16:17:24.498Z,8.90
2019-01-27T16:19:41.030Z,4.70
2019-01-27T16:21:45.625Z,6.33
2019-01-27T16:23:53.007Z,7.53
2019-01-27T16:25:58.941Z,10.30
2019-01-27T16:28:03.698Z,8.53
2019-01-27T16:30:28.262Z,3.97
2019-01-27T16:32:35.890Z,4.70
2019-01-27T16:34:45.221Z,12.00
2019-01-27T16:36:49.674Z,8.03
2019-01-27T16:39:14.153Z,5.60
2019-01-27T16:41:18.840Z,8.93
2019-01-27T16:43:23.561Z,5.80
2019-01-27T16:45:30.104Z,9.47
2019-01-27T16:47:34.674Z,3.90
2019-01-27T16:49:39.169Z,5.60
2019-01-27T16:51:48.986Z,9.70
2019-01-27T16:56:02.807Z,3.53
2019-01-27T16:58:07.408Z,15.97
2019-01-27T17:00:33.244Z,2.33
2019-01-27T17:02:37.474Z,13.30
2019-01-27T17:04:41.946Z,5.17
2019-01-27T17:07:05.667Z,16.23
2019-01-27T17:09:29.206Z,3.53
2019-01-27T17:11:35.981Z,7.17
2019-01-27T17:13:40.492Z,15.23
2019-01-27T17:16:04.956Z,7.63
2019-01-27T17:18:22.419Z,6.30
2019-01-27T17:20:30.323Z,8.13
2019-01-27T17:22:23.661Z,3.83
2019-01-27T17:24:47.195Z,11.93
2019-01-27T17:26:51.735Z,7.20
2019-01-27T17:29:18.123Z,4.53
2019-01-27T17:31:24.169Z,4.97
2019-01-27T17:33:28.647Z,5.97
2019-01-27T17:35:33.102Z,5.50
2019-01-27T17:37:38.286Z,8.83
2019-01-27T17:40:02.032Z,17.83
2019-01-27T17:42:18.607Z,7.30
2019-01-27T17:44:23.394Z,16.03
2019-01-27T17:46:27.818Z,6.33
2019-01-27T17:48:51.256Z,13.00
2019-01-27T17:50:57.821Z,3.43
2019-01-27T17:53:02.378Z,8.00
2019-01-27T17:55:08.574Z,4.63
2019-01-27T17:57:32.072Z,6.50
2019-01-27T18:00:14.870Z,8.53
2019-01-27T18:02:44.454Z,13.73
2019-01-27T18:05:27.323Z,10.93
2019-01-27T18:07:50.870Z,11.80
2019-01-27T18:10:14.547Z,7.80
2019-01-27T18:12:38.975Z,12.40
2019-01-27T18:14:45.248Z,5.20
2019-01-27T18:16:50.073Z,1.60
2019-01-27T18:18:54.901Z,5.67
2019-01-27T18:21:19.669Z,3.53
2019-01-27T18:23:24.318Z,3.77
2019-01-27T18:25:47.978Z,17.80
2019-01-27T18:27:52.547Z,0.73
2019-01-27T18:29:57.799Z,6.20
2019-01-27T18:32:02.232Z,10.97
2019-01-27T18:34:27.472Z,7.60
2019-01-27T18:36:34.488Z,7.53
2019-01-27T18:38:39.189Z,12.47
2019-01-27T18:41:02.697Z,6.10
2019-01-27T18:43:28.659Z,5.97
2019-01-27T18:45:52.116Z,4.20
2019-01-27T18:48:15.771Z,6.53
2019-01-27T18:50:20.578Z,9.33
2019-01-27T18:52:31.420Z,7.27
2019-01-27T18:55:11.218Z,6.90
2019-01-27T18:57:24.485Z,6.43
2019-01-27T18:59:48.986Z,9.73
2019-01-27T19:02:13.224Z,5.17
2019-01-27T19:04:28.219Z,10.77
2019-01-27T19:06:51.574Z,21.77
2019-01-27T19:09:14.835Z,3.30
2019-01-27T19:11:27.738Z,7.30
2019-01-27T19:13:59.347Z,4.63
2019-01-27T19:16:28.883Z,11.97
2019-01-27T19:18:52.188Z,8.20
2019-01-27T19:21:03.273Z,14.57
2019-01-27T19:23:27.231Z,13.97
2019-01-27T19:25:50.706Z,9.60
2019-01-27T19:28:14.102Z,11.07
2019-01-27T19:30:33.679Z,3.53
2019-01-27T19:32:57.084Z,9.63
2019-01-27T19:35:39.467Z,6.37
2019-01-27T19:40:34.211Z,8.17
2019-01-27T19:43:02.141Z,6.77
2019-01-27T19:45:30.518Z,9.57
2019-01-27T19:47:56.142Z,11.33
2019-01-27T19:50:20.077Z,5.17
2019-01-27T19:52:42.028Z,13.27
2019-01-27T19:55:25.228Z,10.13
2019-01-27T19:57:47.155Z,14.23
2019-01-27T20:00:10.832Z,11.03
2019-01-27T20:02:37.540Z,3.30
2019-01-27T20:05:13.402Z,13.67
2019-01-27T20:07:37.035Z,9.10
2019-01-27T20:10:06.656Z,10.23
2019-01-27T20:12:32.200Z,16.60
2019-01-27T20:14:57.598Z,5.73
2019-01-27T20:17:17.984Z,8.93
2019-01-27T20:19:52.707Z,11.53
2019-01-27T20:24:33.282Z,5.60
2019-01-27T20:26:59.380Z,8.80
2019-01-27T20:29:34.782Z,12.43
2019-01-27T20:32:15.168Z,3.40
2019-01-27T20:34:42.797Z,7.23
2019-01-27T20:37:12.812Z,7.13
2019-01-27T20:39:49.771Z,4.83
2019-01-27T20:42:22.321Z,5.10
2019-01-27T20:44:45.888Z,6.87
2019-01-27T20:47:10.045Z,5.50
2019-01-27T20:49:45.440Z,6.57
2019-01-27T20:52:10.052Z,13.43
2019-01-27T20:54:29.209Z,7.33
2019-01-27T20:59:31.240Z,6.57
2019-01-27T21:02:27.113Z,7.73
2019-01-27T21:04:56.539Z,6.97
2019-01-27T21:07:33.127Z,9.10
2019-01-27T21:10:13.721Z,5.23
2019-01-27T21:12:28.277Z,10.00
2019-01-27T21:15:29.980Z,11.70
2019-01-27T21:18:05.388Z,9.20
2019-01-27T21:20:15.563Z,6.37
2019-01-27T21:22:39.513Z,9.83
2019-01-27T21:24:44.918Z,8.93
2019-01-27T21:27:06.307Z,12.13
2019-01-27T21:29:07.491Z,16.10
2019-01-27T21:31:12.299Z,9.63
2019-01-27T21:36:03.509Z,18.80
2019-01-27T21:38:29.456Z,9.87
2019-01-27T21:40:55.503Z,10.50
2019-01-27T21:43:39.768Z,10.33
2019-01-27T21:46:03.840Z,8.93
2019-01-27T21:48:20.128Z,10.53
2019-01-27T21:50:36.360Z,13.63
2019-01-27T21:52:52.642Z,14.07
2019-01-27T21:55:10.078Z,13.10
2019-01-27T21:57:15.134Z,10.40
2019-01-27T21:59:19.643Z,6.67
2019-01-27T22:01:43.135Z,10.30
2019-01-27T22:04:01.534Z,10.27
2019-01-27T22:06:17.307Z,18.67
2019-01-27T22:08:21.916Z,4.20
2019-01-27T22:10:26.391Z,7.77
2019-01-27T22:12:31.124Z,10.83
2019-01-27T22:14:35.742Z,11.40
2019-01-27T22:16:59.548Z,8.73
2019-01-27T22:19:04.638Z,11.47
2019-01-27T22:21:50.270Z,7.93
2019-01-27T22:23:55.137Z,7.03
2019-01-27T22:26:19.487Z,9.10
2019-01-27T22:28:25.299Z,5.73
2019-01-27T22:30:41.588Z,6.97
2019-01-27T22:37:54.599Z,8.80
2019-01-27T22:39:59.531Z,5.17
2019-01-27T22:44:58.574Z,7.67
2019-01-27T22:47:14.945Z,7.93
2019-01-27T22:49:20.115Z,18.67
2019-01-27T22:51:24.690Z,15.03
2019-01-27T22:53:48.155Z,5.23
2019-01-27T22:55:52.456Z,5.07
2019-01-27T22:57:56.884Z,5.90
2019-01-27T23:03:06.319Z,10.03
2019-01-27T23:05:22.849Z,5.97
2019-01-27T23:07:38.826Z,9.03
2019-01-27T23:09:55.259Z,5.57
2019-01-27T23:11:59.954Z,5.93
2019-01-27T23:17:07.282Z,7.40
2019-01-27T23:19:11.924Z,9.23
2019-01-27T23:21:16.683Z,6.33
2019-01-27T23:23:39.597Z,10.87
2019-01-27T23:25:44.032Z,4.60
2019-01-27T23:28:00.622Z,5.30
2019-01-27T23:30:19.901Z,6.13
2019-01-27T23:32:35.872Z,13.80
2019-01-27T23:34:40.271Z,9.70
2019-01-27T23:36:44.677Z,8.83
2019-01-27T23:38:49.075Z,7.80
2019-01-27T23:43:18.927Z,7.93
2019-01-27T23:45:34.673Z,7.10
2019-01-27T23:47:41.638Z,4.60
2019-01-27T23:52:47.829Z,8.87
2019-01-27T23:55:11.802Z,3.93
2019-01-27T23:57:16.214Z,13.90
2019-01-27T23:59:20.963Z,5.70
